sensor_id;sensor_type;location;lat;lon;timestamp;P1;durP1;ratioP1;P2;durP2;ratioP2
15466;SDS011;7834;49.452;11.056;2023-03-16T00:00:45;14.10;;;11.20;;
15466;SDS011;7834;49.452;11.056;2023-03-16T00:03:12;14.32;;;11.55;;
15466;SDS011;7834;49.452;11.056;2023-03-16T00:05:47;15.57;;;10.90;;
15466;SDS011;7834;49.452;11.056;2023-03-16T00:08:14;14.60;;;11.50;;
15466;SDS011;7834;49.452;11.056;2023-03-16T00:10:41;14.25;;;11.57;;
15466;SDS011;7834;49.452;11.056;2023-03-16T00:13:14;13.68;;;11.18;;
15466;SDS011;7834;49.452;11.056;2023-03-16T00:21:37;11.98;;;10.00;;
15466;SDS011;7834;49.452;11.056;2023-03-16T00:24:03;11.57;;;9.27;;
15466;SDS011;7834;49.452;11.056;2023-03-16T00:26:30;11.82;;;9.77;;
15466;SDS011;7834;49.452;11.056;2023-03-16T00:28:56;12.25;;;9.38;;
15466;SDS011;7834;49.452;11.056;2023-03-16T00:31:22;11.45;;;9.50;;
15466;SDS011;7834;49.452;11.056;2023-03-16T00:33:48;14.30;;;9.60;;
15466;SDS011;7834;49.452;11.056;2023-03-16T00:36:15;13.10;;;9.80;;
15466;SDS011;7834;49.452;11.056;2023-03-16T00:38:41;12.65;;;9.38;;
15466;SDS011;7834;49.452;11.056;2023-03-16T00:41:12;12.00;;;9.68;;
15466;SDS011;7834;49.452;11.056;2023-03-16T00:43:39;12.77;;;9.20;;
15466;SDS011;7834;49.452;11.056;2023-03-16T00:46:09;11.32;;;9.38;;
15466;SDS011;7834;49.452;11.056;2023-03-16T00:48:36;11.82;;;9.27;;
15466;SDS011;7834;49.452;11.056;2023-03-16T00:51:04;15.23;;;8.93;;
15466;SDS011;7834;49.452;11.056;2023-03-16T00:53:34;13.00;;;9.50;;
15466;SDS011;7834;49.452;11.056;2023-03-16T00:56:00;11.98;;;9.63;;
15466;SDS011;7834;49.452;11.056;2023-03-16T00:58:30;11.25;;;9.02;;
15466;SDS011;7834;49.452;11.056;2023-03-16T01:01:21;12.37;;;9.47;;
15466;SDS011;7834;49.452;11.056;2023-03-16T01:03:46;13.20;;;9.52;;
15466;SDS011;7834;49.452;11.056;2023-03-16T01:06:15;12.02;;;9.60;;
15466;SDS011;7834;49.452;11.056;2023-03-16T01:08:42;11.55;;;9.40;;
15466;SDS011;7834;49.452;11.056;2023-03-16T01:11:09;11.10;;;8.98;;
15466;SDS011;7834;49.452;11.056;2023-03-16T01:13:36;11.87;;;9.10;;
15466;SDS011;7834;49.452;11.056;2023-03-16T01:16:02;12.63;;;9.87;;
15466;SDS011;7834;49.452;11.056;2023-03-16T01:18:29;12.05;;;9.40;;
15466;SDS011;7834;49.452;11.056;2023-03-16T01:20:58;10.20;;;8.98;;
15466;SDS011;7834;49.452;11.056;2023-03-16T01:23:25;16.05;;;9.35;;
15466;SDS011;7834;49.452;11.056;2023-03-16T01:25:54;12.65;;;9.73;;
15466;SDS011;7834;49.452;11.056;2023-03-16T01:28:21;11.88;;;9.30;;
15466;SDS011;7834;49.452;11.056;2023-03-16T01:30:51;11.52;;;9.65;;
15466;SDS011;7834;49.452;11.056;2023-03-16T01:33:18;12.32;;;9.48;;
15466;SDS011;7834;49.452;11.056;2023-03-16T01:35:52;13.30;;;9.90;;
15466;SDS011;7834;49.452;11.056;2023-03-16T01:38:18;10.77;;;9.38;;
15466;SDS011;7834;49.452;11.056;2023-03-16T01:40:44;13.27;;;9.48;;
15466;SDS011;7834;49.452;11.056;2023-03-16T01:43:16;11.87;;;9.60;;
15466;SDS011;7834;49.452;11.056;2023-03-16T01:48:27;12.18;;;9.70;;
15466;SDS011;7834;49.452;11.056;2023-03-16T01:50:54;12.87;;;10.27;;
15466;SDS011;7834;49.452;11.056;2023-03-16T01:53:20;13.32;;;10.40;;
15466;SDS011;7834;49.452;11.056;2023-03-16T01:55:48;11.77;;;9.67;;
15466;SDS011;7834;49.452;11.056;2023-03-16T01:58:14;11.52;;;9.65;;
15466;SDS011;7834;49.452;11.056;2023-03-16T02:00:40;13.13;;;10.38;;
15466;SDS011;7834;49.452;11.056;2023-03-16T02:03:10;13.90;;;10.90;;
15466;SDS011;7834;49.452;11.056;2023-03-16T02:05:39;14.32;;;10.50;;
15466;SDS011;7834;49.452;11.056;2023-03-16T02:08:06;12.30;;;10.38;;
15466;SDS011;7834;49.452;11.056;2023-03-16T02:10:33;15.75;;;11.85;;
15466;SDS011;7834;49.452;11.056;2023-03-16T02:12:59;15.33;;;12.40;;
15466;SDS011;7834;49.452;11.056;2023-03-16T02:15:26;14.77;;;11.68;;
15466;SDS011;7834;49.452;11.056;2023-03-16T02:17:52;15.70;;;12.43;;
15466;SDS011;7834;49.452;11.056;2023-03-16T02:23:03;13.68;;;10.63;;
15466;SDS011;7834;49.452;11.056;2023-03-16T02:25:38;14.13;;;10.90;;
15466;SDS011;7834;49.452;11.056;2023-03-16T02:30:53;12.07;;;9.98;;
15466;SDS011;7834;49.452;11.056;2023-03-16T02:33:19;13.68;;;10.55;;
15466;SDS011;7834;49.452;11.056;2023-03-16T02:35:45;14.35;;;10.43;;
15466;SDS011;7834;49.452;11.056;2023-03-16T02:38:11;12.57;;;10.07;;
15466;SDS011;7834;49.452;11.056;2023-03-16T02:40:37;12.48;;;9.48;;
15466;SDS011;7834;49.452;11.056;2023-03-16T02:43:07;12.55;;;10.07;;
15466;SDS011;7834;49.452;11.056;2023-03-16T02:48:04;11.93;;;9.30;;
15466;SDS011;7834;49.452;11.056;2023-03-16T02:50:32;12.93;;;9.83;;
15466;SDS011;7834;49.452;11.056;2023-03-16T02:52:58;11.52;;;10.15;;
15466;SDS011;7834;49.452;11.056;2023-03-16T02:55:24;12.65;;;10.80;;
15466;SDS011;7834;49.452;11.056;2023-03-16T02:57:50;12.57;;;10.48;;
15466;SDS011;7834;49.452;11.056;2023-03-16T03:00:16;12.35;;;10.45;;
15466;SDS011;7834;49.452;11.056;2023-03-16T03:02:43;13.45;;;10.07;;
15466;SDS011;7834;49.452;11.056;2023-03-16T03:05:10;12.43;;;10.20;;
15466;SDS011;7834;49.452;11.056;2023-03-16T03:07:36;12.13;;;9.85;;
15466;SDS011;7834;49.452;11.056;2023-03-16T03:10:03;11.80;;;9.70;;
15466;SDS011;7834;49.452;11.056;2023-03-16T03:12:30;12.32;;;9.73;;
15466;SDS011;7834;49.452;11.056;2023-03-16T03:14:56;12.23;;;9.43;;
15466;SDS011;7834;49.452;11.056;2023-03-16T03:17:23;12.63;;;10.40;;
15466;SDS011;7834;49.452;11.056;2023-03-16T03:19:57;11.35;;;9.45;;
15466;SDS011;7834;49.452;11.056;2023-03-16T03:22:25;10.63;;;8.90;;
15466;SDS011;7834;49.452;11.056;2023-03-16T03:24:51;9.88;;;8.68;;
15466;SDS011;7834;49.452;11.056;2023-03-16T03:27:18;10.48;;;8.40;;
15466;SDS011;7834;49.452;11.056;2023-03-16T03:29:46;10.98;;;9.00;;
15466;SDS011;7834;49.452;11.056;2023-03-16T03:32:12;10.50;;;8.77;;
15466;SDS011;7834;49.452;11.056;2023-03-16T03:34:38;11.77;;;8.60;;
15466;SDS011;7834;49.452;11.056;2023-03-16T03:37:06;9.80;;;8.60;;
15466;SDS011;7834;49.452;11.056;2023-03-16T03:39:32;10.30;;;8.40;;
15466;SDS011;7834;49.452;11.056;2023-03-16T03:41:59;11.23;;;8.60;;
15466;SDS011;7834;49.452;11.056;2023-03-16T03:44:27;10.18;;;8.40;;
15466;SDS011;7834;49.452;11.056;2023-03-16T03:46:53;8.93;;;7.63;;
15466;SDS011;7834;49.452;11.056;2023-03-16T03:49:19;10.30;;;8.23;;
15466;SDS011;7834;49.452;11.056;2023-03-16T03:51:45;10.57;;;8.63;;
15466;SDS011;7834;49.452;11.056;2023-03-16T03:54:11;11.43;;;8.45;;
15466;SDS011;7834;49.452;11.056;2023-03-16T03:56:37;10.38;;;7.70;;
15466;SDS011;7834;49.452;11.056;2023-03-16T03:59:03;10.48;;;7.43;;
15466;SDS011;7834;49.452;11.056;2023-03-16T04:01:29;9.50;;;7.65;;
15466;SDS011;7834;49.452;11.056;2023-03-16T04:03:55;10.35;;;7.70;;
15466;SDS011;7834;49.452;11.056;2023-03-16T04:06:21;9.25;;;7.53;;
15466;SDS011;7834;49.452;11.056;2023-03-16T04:08:47;9.05;;;7.68;;
15466;SDS011;7834;49.452;11.056;2023-03-16T04:11:13;10.27;;;7.88;;
15466;SDS011;7834;49.452;11.056;2023-03-16T04:13:39;9.63;;;7.90;;
15466;SDS011;7834;49.452;11.056;2023-03-16T04:16:05;9.13;;;7.95;;
15466;SDS011;7834;49.452;11.056;2023-03-16T04:18:31;9.93;;;8.20;;
15466;SDS011;7834;49.452;11.056;2023-03-16T04:21:05;8.95;;;7.65;;
15466;SDS011;7834;49.452;11.056;2023-03-16T04:23:32;9.32;;;8.30;;
15466;SDS011;7834;49.452;11.056;2023-03-16T04:25:59;9.20;;;8.20;;
15466;SDS011;7834;49.452;11.056;2023-03-16T04:28:25;11.93;;;9.00;;
15466;SDS011;7834;49.452;11.056;2023-03-16T04:30:51;10.73;;;8.70;;
15466;SDS011;7834;49.452;11.056;2023-03-16T04:33:20;10.48;;;8.70;;
15466;SDS011;7834;49.452;11.056;2023-03-16T04:35:47;10.40;;;8.43;;
15466;SDS011;7834;49.452;11.056;2023-03-16T04:38:13;11.13;;;8.73;;
15466;SDS011;7834;49.452;11.056;2023-03-16T04:40:39;10.73;;;9.15;;
15466;SDS011;7834;49.452;11.056;2023-03-16T04:43:05;9.95;;;8.63;;
15466;SDS011;7834;49.452;11.056;2023-03-16T04:45:31;11.27;;;8.85;;
15466;SDS011;7834;49.452;11.056;2023-03-16T04:47:57;10.90;;;8.95;;
15466;SDS011;7834;49.452;11.056;2023-03-16T04:50:23;11.52;;;9.02;;
15466;SDS011;7834;49.452;11.056;2023-03-16T04:52:49;10.20;;;8.67;;
15466;SDS011;7834;49.452;11.056;2023-03-16T04:55:16;10.67;;;8.97;;
15466;SDS011;7834;49.452;11.056;2023-03-16T04:57:42;10.85;;;8.85;;
15466;SDS011;7834;49.452;11.056;2023-03-16T05:00:08;12.07;;;9.20;;
15466;SDS011;7834;49.452;11.056;2023-03-16T05:02:37;11.63;;;9.27;;
15466;SDS011;7834;49.452;11.056;2023-03-16T05:05:03;13.57;;;9.43;;
15466;SDS011;7834;49.452;11.056;2023-03-16T05:07:30;11.57;;;9.10;;
15466;SDS011;7834;49.452;11.056;2023-03-16T05:09:56;10.68;;;9.02;;
15466;SDS011;7834;49.452;11.056;2023-03-16T05:12:22;11.77;;;8.83;;
15466;SDS011;7834;49.452;11.056;2023-03-16T05:14:48;11.20;;;9.03;;
15466;SDS011;7834;49.452;11.056;2023-03-16T05:17:14;11.10;;;8.87;;
15466;SDS011;7834;49.452;11.056;2023-03-16T05:19:40;11.80;;;9.30;;
15466;SDS011;7834;49.452;11.056;2023-03-16T05:22:06;11.63;;;8.93;;
15466;SDS011;7834;49.452;11.056;2023-03-16T05:24:32;10.70;;;8.98;;
15466;SDS011;7834;49.452;11.056;2023-03-16T05:26:58;13.13;;;9.57;;
15466;SDS011;7834;49.452;11.056;2023-03-16T05:29:28;11.50;;;9.23;;
15466;SDS011;7834;49.452;11.056;2023-03-16T05:31:58;10.83;;;8.90;;
15466;SDS011;7834;49.452;11.056;2023-03-16T05:34:24;11.10;;;9.30;;
15466;SDS011;7834;49.452;11.056;2023-03-16T05:36:50;11.93;;;8.73;;
15466;SDS011;7834;49.452;11.056;2023-03-16T05:39:16;11.68;;;8.68;;
15466;SDS011;7834;49.452;11.056;2023-03-16T05:41:43;11.68;;;9.20;;
15466;SDS011;7834;49.452;11.056;2023-03-16T05:44:09;10.40;;;8.65;;
15466;SDS011;7834;49.452;11.056;2023-03-16T05:46:35;10.75;;;8.77;;
15466;SDS011;7834;49.452;11.056;2023-03-16T05:49:01;12.18;;;9.18;;
15466;SDS011;7834;49.452;11.056;2023-03-16T05:51:28;11.05;;;8.48;;
15466;SDS011;7834;49.452;11.056;2023-03-16T05:53:54;9.98;;;8.40;;
15466;SDS011;7834;49.452;11.056;2023-03-16T05:56:23;10.90;;;9.07;;
15466;SDS011;7834;49.452;11.056;2023-03-16T05:58:50;10.48;;;8.52;;
15466;SDS011;7834;49.452;11.056;2023-03-16T06:01:17;11.57;;;8.63;;
15466;SDS011;7834;49.452;11.056;2023-03-16T06:03:44;9.45;;;8.10;;
15466;SDS011;7834;49.452;11.056;2023-03-16T06:06:10;8.55;;;7.38;;
15466;SDS011;7834;49.452;11.056;2023-03-16T06:08:36;9.02;;;7.60;;
15466;SDS011;7834;49.452;11.056;2023-03-16T06:11:02;10.67;;;8.00;;
15466;SDS011;7834;49.452;11.056;2023-03-16T06:13:28;11.63;;;7.80;;
15466;SDS011;7834;49.452;11.056;2023-03-16T06:15:54;9.88;;;7.78;;
15466;SDS011;7834;49.452;11.056;2023-03-16T06:18:20;9.52;;;8.02;;
15466;SDS011;7834;49.452;11.056;2023-03-16T06:20:46;8.93;;;7.63;;
15466;SDS011;7834;49.452;11.056;2023-03-16T06:23:12;10.05;;;7.57;;
15466;SDS011;7834;49.452;11.056;2023-03-16T06:25:39;11.13;;;8.23;;
15466;SDS011;7834;49.452;11.056;2023-03-16T06:28:05;10.87;;;8.00;;
15466;SDS011;7834;49.452;11.056;2023-03-16T06:30:32;11.77;;;8.98;;
15466;SDS011;7834;49.452;11.056;2023-03-16T06:32:58;12.57;;;10.10;;
15466;SDS011;7834;49.452;11.056;2023-03-16T06:35:24;11.57;;;9.18;;
15466;SDS011;7834;49.452;11.056;2023-03-16T06:37:50;12.13;;;9.25;;
15466;SDS011;7834;49.452;11.056;2023-03-16T06:40:17;11.93;;;9.13;;
15466;SDS011;7834;49.452;11.056;2023-03-16T06:42:43;11.02;;;8.63;;
15466;SDS011;7834;49.452;11.056;2023-03-16T06:45:09;11.52;;;8.63;;
15466;SDS011;7834;49.452;11.056;2023-03-16T06:47:36;12.93;;;9.18;;
15466;SDS011;7834;49.452;11.056;2023-03-16T06:50:02;11.30;;;9.30;;
15466;SDS011;7834;49.452;11.056;2023-03-16T06:52:28;13.55;;;9.10;;
15466;SDS011;7834;49.452;11.056;2023-03-16T06:54:55;12.52;;;9.93;;
15466;SDS011;7834;49.452;11.056;2023-03-16T06:57:22;10.98;;;8.80;;
15466;SDS011;7834;49.452;11.056;2023-03-16T06:59:48;12.65;;;9.13;;
15466;SDS011;7834;49.452;11.056;2023-03-16T07:02:15;11.55;;;9.15;;
15466;SDS011;7834;49.452;11.056;2023-03-16T07:04:41;12.23;;;9.13;;
15466;SDS011;7834;49.452;11.056;2023-03-16T07:07:07;13.52;;;9.77;;
15466;SDS011;7834;49.452;11.056;2023-03-16T07:09:33;11.60;;;8.38;;
15466;SDS011;7834;49.452;11.056;2023-03-16T07:11:59;10.65;;;8.43;;
15466;SDS011;7834;49.452;11.056;2023-03-16T07:14:25;9.60;;;8.10;;
15466;SDS011;7834;49.452;11.056;2023-03-16T07:16:51;10.50;;;8.18;;
15466;SDS011;7834;49.452;11.056;2023-03-16T07:19:17;10.17;;;8.07;;
15466;SDS011;7834;49.452;11.056;2023-03-16T07:21:44;11.02;;;8.38;;
15466;SDS011;7834;49.452;11.056;2023-03-16T07:24:10;10.65;;;7.90;;
15466;SDS011;7834;49.452;11.056;2023-03-16T07:26:37;10.55;;;7.70;;
15466;SDS011;7834;49.452;11.056;2023-03-16T07:29:03;8.77;;;7.45;;
15466;SDS011;7834;49.452;11.056;2023-03-16T07:31:30;8.75;;;7.20;;
15466;SDS011;7834;49.452;11.056;2023-03-16T07:33:57;8.83;;;6.57;;
15466;SDS011;7834;49.452;11.056;2023-03-16T07:36:23;10.70;;;7.00;;
15466;SDS011;7834;49.452;11.056;2023-03-16T07:38:49;9.43;;;6.60;;
15466;SDS011;7834;49.452;11.056;2023-03-16T07:41:15;8.85;;;7.18;;
15466;SDS011;7834;49.452;11.056;2023-03-16T07:43:41;9.57;;;6.85;;
15466;SDS011;7834;49.452;11.056;2023-03-16T07:46:10;8.83;;;6.80;;
15466;SDS011;7834;49.452;11.056;2023-03-16T07:48:38;8.67;;;6.50;;
15466;SDS011;7834;49.452;11.056;2023-03-16T07:51:04;8.85;;;6.88;;
15466;SDS011;7834;49.452;11.056;2023-03-16T07:53:30;9.82;;;6.70;;
15466;SDS011;7834;49.452;11.056;2023-03-16T07:55:56;9.63;;;6.57;;
15466;SDS011;7834;49.452;11.056;2023-03-16T07:58:22;7.63;;;6.33;;
15466;SDS011;7834;49.452;11.056;2023-03-16T08:00:48;8.47;;;6.60;;
15466;SDS011;7834;49.452;11.056;2023-03-16T08:03:15;8.65;;;6.75;;
15466;SDS011;7834;49.452;11.056;2023-03-16T08:05:41;9.27;;;6.70;;
15466;SDS011;7834;49.452;11.056;2023-03-16T08:08:07;7.50;;;6.22;;
15466;SDS011;7834;49.452;11.056;2023-03-16T08:10:33;8.20;;;5.88;;
15466;SDS011;7834;49.452;11.056;2023-03-16T08:13:00;8.80;;;6.50;;
15466;SDS011;7834;49.452;11.056;2023-03-16T08:15:28;8.90;;;6.03;;
15466;SDS011;7834;49.452;11.056;2023-03-16T08:17:57;9.68;;;5.88;;
15466;SDS011;7834;49.452;11.056;2023-03-16T08:20:26;7.70;;;5.95;;
15466;SDS011;7834;49.452;11.056;2023-03-16T08:22:52;10.68;;;6.20;;
15466;SDS011;7834;49.452;11.056;2023-03-16T08:25:18;7.57;;;5.45;;
15466;SDS011;7834;49.452;11.056;2023-03-16T08:27:44;8.55;;;5.80;;
15466;SDS011;7834;49.452;11.056;2023-03-16T08:30:11;9.27;;;5.75;;
15466;SDS011;7834;49.452;11.056;2023-03-16T08:32:38;9.52;;;5.75;;
15466;SDS011;7834;49.452;11.056;2023-03-16T08:35:05;7.63;;;5.13;;
15466;SDS011;7834;49.452;11.056;2023-03-16T08:37:32;8.85;;;5.45;;
15466;SDS011;7834;49.452;11.056;2023-03-16T08:39:58;8.02;;;5.10;;
15466;SDS011;7834;49.452;11.056;2023-03-16T08:42:24;9.25;;;5.40;;
15466;SDS011;7834;49.452;11.056;2023-03-16T08:44:52;8.60;;;5.00;;
15466;SDS011;7834;49.452;11.056;2023-03-16T08:47:20;7.75;;;5.18;;
15466;SDS011;7834;49.452;11.056;2023-03-16T08:49:46;6.43;;;5.22;;
15466;SDS011;7834;49.452;11.056;2023-03-16T08:52:12;8.95;;;5.60;;
15466;SDS011;7834;49.452;11.056;2023-03-16T08:54:39;7.10;;;5.28;;
15466;SDS011;7834;49.452;11.056;2023-03-16T08:57:06;7.47;;;5.57;;
15466;SDS011;7834;49.452;11.056;2023-03-16T08:59:33;6.28;;;5.22;;
15466;SDS011;7834;49.452;11.056;2023-03-16T09:01:59;7.70;;;4.93;;
15466;SDS011;7834;49.452;11.056;2023-03-16T09:04:25;7.38;;;5.53;;
15466;SDS011;7834;49.452;11.056;2023-03-16T09:06:52;6.78;;;5.15;;
15466;SDS011;7834;49.452;11.056;2023-03-16T09:09:18;8.25;;;5.40;;
15466;SDS011;7834;49.452;11.056;2023-03-16T09:11:45;6.83;;;4.63;;
15466;SDS011;7834;49.452;11.056;2023-03-16T09:14:11;7.28;;;4.90;;
15466;SDS011;7834;49.452;11.056;2023-03-16T09:16:38;5.27;;;4.37;;
15466;SDS011;7834;49.452;11.056;2023-03-16T09:19:04;10.10;;;4.83;;
15466;SDS011;7834;49.452;11.056;2023-03-16T09:21:31;6.07;;;4.37;;
15466;SDS011;7834;49.452;11.056;2023-03-16T09:23:59;5.03;;;4.28;;
15466;SDS011;7834;49.452;11.056;2023-03-16T09:26:26;6.38;;;4.25;;
15466;SDS011;7834;49.452;11.056;2023-03-16T09:28:52;4.20;;;3.60;;
15466;SDS011;7834;49.452;11.056;2023-03-16T09:31:19;5.82;;;3.47;;
15466;SDS011;7834;49.452;11.056;2023-03-16T09:33:46;5.87;;;3.80;;
15466;SDS011;7834;49.452;11.056;2023-03-16T09:36:13;5.85;;;4.10;;
15466;SDS011;7834;49.452;11.056;2023-03-16T09:38:39;5.93;;;4.10;;
15466;SDS011;7834;49.452;11.056;2023-03-16T09:41:15;8.27;;;4.38;;
15466;SDS011;7834;49.452;11.056;2023-03-16T09:46:10;4.10;;;3.40;;
15466;SDS011;7834;49.452;11.056;2023-03-16T09:48:38;4.70;;;3.55;;
15466;SDS011;7834;49.452;11.056;2023-03-16T09:51:10;6.50;;;3.00;;
15466;SDS011;7834;49.452;11.056;2023-03-16T09:53:40;7.38;;;2.70;;
15466;SDS011;7834;49.452;11.056;2023-03-16T09:56:10;11.40;;;3.15;;
15466;SDS011;7834;49.452;11.056;2023-03-16T09:58:38;8.13;;;2.80;;
15466;SDS011;7834;49.452;11.056;2023-03-16T10:07:14;6.80;;;2.80;;
15466;SDS011;7834;49.452;11.056;2023-03-16T10:09:55;6.27;;;2.70;;
15466;SDS011;7834;49.452;11.056;2023-03-16T10:12:24;4.78;;;2.30;;
15466;SDS011;7834;49.452;11.056;2023-03-16T10:15:02;6.75;;;2.40;;
15466;SDS011;7834;49.452;11.056;2023-03-16T10:17:41;7.72;;;2.75;;
15466;SDS011;7834;49.452;11.056;2023-03-16T10:22:42;4.63;;;2.63;;
15466;SDS011;7834;49.452;11.056;2023-03-16T10:27:46;7.77;;;2.67;;
15466;SDS011;7834;49.452;11.056;2023-03-16T10:32:42;4.28;;;2.17;;
15466;SDS011;7834;49.452;11.056;2023-03-16T10:37:47;4.55;;;2.60;;
15466;SDS011;7834;49.452;11.056;2023-03-16T10:40:13;5.05;;;2.33;;
15466;SDS011;7834;49.452;11.056;2023-03-16T10:42:40;6.47;;;2.60;;
15466;SDS011;7834;49.452;11.056;2023-03-16T10:45:13;5.28;;;3.00;;
15466;SDS011;7834;49.452;11.056;2023-03-16T10:47:44;5.60;;;2.72;;
15466;SDS011;7834;49.452;11.056;2023-03-16T10:50:11;3.65;;;2.50;;
15466;SDS011;7834;49.452;11.056;2023-03-16T10:52:44;4.03;;;2.58;;
15466;SDS011;7834;49.452;11.056;2023-03-16T10:55:25;5.77;;;2.87;;
15466;SDS011;7834;49.452;11.056;2023-03-16T10:57:54;4.43;;;2.58;;
15466;SDS011;7834;49.452;11.056;2023-03-16T11:00:21;3.00;;;2.28;;
15466;SDS011;7834;49.452;11.056;2023-03-16T11:02:48;4.60;;;2.50;;
15466;SDS011;7834;49.452;11.056;2023-03-16T11:10:36;3.15;;;2.53;;
15466;SDS011;7834;49.452;11.056;2023-03-16T11:13:11;2.78;;;2.30;;
15466;SDS011;7834;49.452;11.056;2023-03-16T11:15:39;2.90;;;2.15;;
15466;SDS011;7834;49.452;11.056;2023-03-16T11:18:08;2.20;;;2.00;;
15466;SDS011;7834;49.452;11.056;2023-03-16T11:20:40;3.05;;;2.15;;
15466;SDS011;7834;49.452;11.056;2023-03-16T11:23:08;4.43;;;2.40;;
15466;SDS011;7834;49.452;11.056;2023-03-16T11:25:37;4.87;;;2.50;;
15466;SDS011;7834;49.452;11.056;2023-03-16T11:28:13;4.68;;;2.53;;
15466;SDS011;7834;49.452;11.056;2023-03-16T11:33:13;3.70;;;2.63;;
15466;SDS011;7834;49.452;11.056;2023-03-16T11:38:28;2.90;;;2.50;;
15466;SDS011;7834;49.452;11.056;2023-03-16T11:40:58;3.45;;;2.75;;
15466;SDS011;7834;49.452;11.056;2023-03-16T11:46:25;3.35;;;2.60;;
15466;SDS011;7834;49.452;11.056;2023-03-16T11:54:13;5.45;;;3.10;;
15466;SDS011;7834;49.452;11.056;2023-03-16T11:56:47;3.50;;;3.20;;
15466;SDS011;7834;49.452;11.056;2023-03-16T11:59:20;3.30;;;3.00;;
15466;SDS011;7834;49.452;11.056;2023-03-16T12:02:31;4.65;;;2.90;;
15466;SDS011;7834;49.452;11.056;2023-03-16T12:17:46;3.40;;;2.83;;
15466;SDS011;7834;49.452;11.056;2023-03-16T12:22:51;4.20;;;2.80;;
15466;SDS011;7834;49.452;11.056;2023-03-16T12:25:19;4.72;;;2.90;;
15466;SDS011;7834;49.452;11.056;2023-03-16T12:27:48;4.57;;;2.90;;
15466;SDS011;7834;49.452;11.056;2023-03-16T12:35:44;3.88;;;3.20;;
15466;SDS011;7834;49.452;11.056;2023-03-16T12:40:42;3.80;;;3.45;;
15466;SDS011;7834;49.452;11.056;2023-03-16T12:48:22;3.90;;;3.50;;
15466;SDS011;7834;49.452;11.056;2023-03-16T12:50:53;6.57;;;3.50;;
15466;SDS011;7834;49.452;11.056;2023-03-16T12:53:24;7.88;;;3.85;;
15466;SDS011;7834;49.452;11.056;2023-03-16T12:55:51;4.28;;;3.38;;
15466;SDS011;7834;49.452;11.056;2023-03-16T12:58:17;3.85;;;3.13;;
15466;SDS011;7834;49.452;11.056;2023-03-16T13:00:43;3.58;;;3.28;;
15466;SDS011;7834;49.452;11.056;2023-03-16T13:03:20;3.20;;;2.80;;
15466;SDS011;7834;49.452;11.056;2023-03-16T13:05:51;3.70;;;3.10;;
15466;SDS011;7834;49.452;11.056;2023-03-16T13:08:18;3.33;;;3.03;;
15466;SDS011;7834;49.452;11.056;2023-03-16T13:16:29;3.10;;;2.80;;
15466;SDS011;7834;49.452;11.056;2023-03-16T13:18:55;4.10;;;2.65;;
15466;SDS011;7834;49.452;11.056;2023-03-16T13:21:37;4.88;;;3.00;;
15466;SDS011;7834;49.452;11.056;2023-03-16T13:24:20;3.80;;;3.17;;
15466;SDS011;7834;49.452;11.056;2023-03-16T13:26:56;3.10;;;2.80;;
15466;SDS011;7834;49.452;11.056;2023-03-16T13:31:49;7.82;;;3.17;;
15466;SDS011;7834;49.452;11.056;2023-03-16T13:34:21;5.13;;;2.90;;
15466;SDS011;7834;49.452;11.056;2023-03-16T13:36:47;3.40;;;2.90;;
15466;SDS011;7834;49.452;11.056;2023-03-16T13:39:17;4.93;;;2.97;;
15466;SDS011;7834;49.452;11.056;2023-03-16T13:41:57;3.92;;;2.80;;
15466;SDS011;7834;49.452;11.056;2023-03-16T13:44:24;5.25;;;3.30;;
15466;SDS011;7834;49.452;11.056;2023-03-16T13:46:50;4.35;;;3.50;;
15466;SDS011;7834;49.452;11.056;2023-03-16T13:49:17;4.00;;;3.30;;
15466;SDS011;7834;49.452;11.056;2023-03-16T13:51:43;3.67;;;3.25;;
15466;SDS011;7834;49.452;11.056;2023-03-16T13:54:18;3.30;;;3.00;;
15466;SDS011;7834;49.452;11.056;2023-03-16T13:56:45;4.80;;;3.10;;
15466;SDS011;7834;49.452;11.056;2023-03-16T13:59:13;4.88;;;3.53;;
15466;SDS011;7834;49.452;11.056;2023-03-16T14:01:41;3.65;;;3.35;;
15466;SDS011;7834;49.452;11.056;2023-03-16T14:04:09;4.38;;;3.97;;
15466;SDS011;7834;49.452;11.056;2023-03-16T14:06:38;3.80;;;3.25;;
15466;SDS011;7834;49.452;11.056;2023-03-16T14:09:06;6.97;;;3.50;;
15466;SDS011;7834;49.452;11.056;2023-03-16T14:11:33;9.60;;;3.80;;
15466;SDS011;7834;49.452;11.056;2023-03-16T14:13:59;9.83;;;3.43;;
15466;SDS011;7834;49.452;11.056;2023-03-16T14:16:26;4.40;;;2.92;;
15466;SDS011;7834;49.452;11.056;2023-03-16T14:21:24;7.50;;;3.70;;
15466;SDS011;7834;49.452;11.056;2023-03-16T14:23:51;4.20;;;3.22;;
15466;SDS011;7834;49.452;11.056;2023-03-16T14:26:18;3.63;;;3.15;;
15466;SDS011;7834;49.452;11.056;2023-03-16T14:31:21;3.20;;;2.90;;
15466;SDS011;7834;49.452;11.056;2023-03-16T14:33:58;3.42;;;3.00;;
15466;SDS011;7834;49.452;11.056;2023-03-16T14:36:32;4.22;;;2.90;;
15466;SDS011;7834;49.452;11.056;2023-03-16T14:39:08;4.25;;;3.50;;
15466;SDS011;7834;49.452;11.056;2023-03-16T14:41:35;3.70;;;3.40;;
15466;SDS011;7834;49.452;11.056;2023-03-16T14:44:03;6.65;;;3.70;;
15466;SDS011;7834;49.452;11.056;2023-03-16T14:46:38;3.55;;;3.17;;
15466;SDS011;7834;49.452;11.056;2023-03-16T14:49:15;3.22;;;3.00;;
15466;SDS011;7834;49.452;11.056;2023-03-16T14:51:43;3.37;;;2.83;;
15466;SDS011;7834;49.452;11.056;2023-03-16T14:54:14;3.13;;;2.83;;
15466;SDS011;7834;49.452;11.056;2023-03-16T14:56:41;4.00;;;3.30;;
15466;SDS011;7834;49.452;11.056;2023-03-16T14:59:08;4.97;;;3.10;;
15466;SDS011;7834;49.452;11.056;2023-03-16T15:01:34;3.65;;;3.05;;
15466;SDS011;7834;49.452;11.056;2023-03-16T15:04:01;5.20;;;3.30;;
15466;SDS011;7834;49.452;11.056;2023-03-16T15:06:27;3.78;;;3.10;;
15466;SDS011;7834;49.452;11.056;2023-03-16T15:08:56;4.53;;;3.03;;
15466;SDS011;7834;49.452;11.056;2023-03-16T15:11:22;7.22;;;3.60;;
15466;SDS011;7834;49.452;11.056;2023-03-16T15:13:50;4.65;;;3.10;;
15466;SDS011;7834;49.452;11.056;2023-03-16T15:16:16;3.40;;;3.10;;
15466;SDS011;7834;49.452;11.056;2023-03-16T15:18:42;3.20;;;2.80;;
15466;SDS011;7834;49.452;11.056;2023-03-16T15:21:12;3.67;;;3.30;;
15466;SDS011;7834;49.452;11.056;2023-03-16T15:23:39;3.50;;;3.20;;
15466;SDS011;7834;49.452;11.056;2023-03-16T15:26:07;5.47;;;3.50;;
15466;SDS011;7834;49.452;11.056;2023-03-16T15:28:34;5.70;;;3.40;;
15466;SDS011;7834;49.452;11.056;2023-03-16T15:31:02;4.30;;;3.40;;
15466;SDS011;7834;49.452;11.056;2023-03-16T15:33:28;4.03;;;3.45;;
15466;SDS011;7834;49.452;11.056;2023-03-16T15:35:55;5.57;;;3.90;;
15466;SDS011;7834;49.452;11.056;2023-03-16T15:40:48;5.13;;;3.83;;
15466;SDS011;7834;49.452;11.056;2023-03-16T15:43:16;4.35;;;3.80;;
15466;SDS011;7834;49.452;11.056;2023-03-16T15:45:42;5.28;;;3.95;;
15466;SDS011;7834;49.452;11.056;2023-03-16T15:48:09;5.55;;;3.88;;
15466;SDS011;7834;49.452;11.056;2023-03-16T15:50:36;6.97;;;4.00;;
15466;SDS011;7834;49.452;11.056;2023-03-16T15:53:07;4.72;;;4.00;;
15466;SDS011;7834;49.452;11.056;2023-03-16T15:55:35;4.87;;;4.00;;
15466;SDS011;7834;49.452;11.056;2023-03-16T15:58:01;6.25;;;4.20;;
15466;SDS011;7834;49.452;11.056;2023-03-16T16:02:55;5.72;;;4.00;;
15466;SDS011;7834;49.452;11.056;2023-03-16T16:05:21;5.40;;;4.20;;
15466;SDS011;7834;49.452;11.056;2023-03-16T16:07:47;5.38;;;4.10;;
15466;SDS011;7834;49.452;11.056;2023-03-16T16:10:14;6.10;;;5.17;;
15466;SDS011;7834;49.452;11.056;2023-03-16T16:12:41;6.30;;;5.70;;
15466;SDS011;7834;49.452;11.056;2023-03-16T16:17:43;6.75;;;5.00;;
15466;SDS011;7834;49.452;11.056;2023-03-16T16:23:05;5.72;;;5.10;;
15466;SDS011;7834;49.452;11.056;2023-03-16T16:25:36;6.13;;;4.80;;
15466;SDS011;7834;49.452;11.056;2023-03-16T16:28:24;5.47;;;4.97;;
15466;SDS011;7834;49.452;11.056;2023-03-16T16:30:51;6.93;;;5.10;;